EDT,Max TemperatureF,Mean TemperatureF,Min TemperatureF,Max Dew PointF,MeanDew PointF,Min DewpointF,Max Humidity, Mean Humidity, Min Humidity, Max Sea Level PressureIn, Mean Sea Level PressureIn, Min Sea Level PressureIn, Max VisibilityMiles, Mean VisibilityMiles, Min VisibilityMiles, Max Wind SpeedMPH, Mean Wind SpeedMPH, Max Gust SpeedMPH,PrecipitationIn, CloudCover, Events, WindDirDegrees
2014-3-1,28,10,-8,14,-1,-12,83,59,34,30.46,30.28,30.06,10,10,7,14,3,20,0.00,3,,198
2014-3-2,28,23,17,19,13,7,77,62,46,30.09,30.05,30.02,10,9,4,14,6,20,T,7,Snow,299
2014-3-3,19,10,0,6,-3,-10,69,49,28,30.32,30.19,30.07,10,10,9,20,7,24,0.00,1,,293
2014-3-4,27,9,-9,9,-3,-12,83,51,19,30.40,30.32,30.25,10,10,10,12,2,16,0.00,4,,297
2014-3-5,23,17,10,14,8,-5,88,70,51,30.57,30.36,30.27,10,8,2,10,3,17,T,6,Snow,8
2014-3-6,29,13,-3,2,-10,-16,79,47,15,30.69,30.60,30.53,10,10,9,12,2,17,0.00,0,,29
2014-3-7,36,15,-7,12,1,-11,87,55,23,30.51,30.26,29.98,10,10,9,13,2,19,0.00,0,,153
2014-3-8,47,28,9,25,16,6,91,63,34,29.96,29.86,29.75,10,10,9,17,4,26,0.00,5,,298
2014-3-9,34,27,20,15,7,0,63,44,24,29.98,29.92,29.86,10,10,10,20,7,28,0.00,1,,282
2014-3-10,39,32,24,29,22,10,88,69,50,29.86,29.74,29.57,10,7,1,12,2,14,T,8,Snow,220
2014-3-11,51,39,26,31,27,24,100,68,35,29.73,29.54,29.47,10,4,0,18,4,27,T,3,Fog-Snow,287
2014-3-12,33,27,21,32,28,17,100,87,74,29.73,29.47,29.19,10,3,0,15,3,25,0.68,8,Fog-Rain-Snow,45
2014-3-13,21,12,2,17,4,-5,80,64,48,29.98,29.48,29.17,10,5,1,22,9,40,T,6,Snow,303
2014-3-14,31,14,-4,21,8,-7,92,70,47,30.16,30.02,29.85,10,10,6,14,4,18,0.00,4,,199
2014-3-15,45,34,23,32,26,17,100,76,51,29.91,29.76,29.67,10,10,7,28,7,40,0.42,6,Rain-Snow,271
2014-3-16,30,19,7,17,1,-4,58,45,31,30.25,30.12,29.91,10,10,10,22,9,31,T,2,,291
2014-3-17,27,15,2,2,-3,-7,87,57,26,30.24,30.17,30.08,10,10,7,14,3,18,0.00,0,,20
2014-3-18,37,19,0,12,0,-9,95,55,14,30.37,30.31,30.22,10,10,9,7,0,8,0.00,1,,340
2014-3-19,38,24,10,31,24,7,100,70,40,30.39,30.13,29.95,10,4,0,14,2,19,T,6,Fog-Snow,159
2014-3-20,43,37,30,33,30,21,100,77,53,29.95,29.74,29.63,10,4,0,24,6,36,0.03,8,Fog-Rain-Snow,242
2014-3-21,37,30,23,23,19,16,74,59,44,30.04,29.87,29.73,10,10,9,21,9,31,T,5,,278
2014-3-22,43,31,18,30,22,15,92,69,46,30.06,29.85,29.67,10,8,0,21,6,33,0.01,5,Fog-Snow,201
2014-3-23,33,24,14,21,9,-5,63,49,34,30.15,30.02,29.94,10,10,10,20,9,27,0.00,2,,302
2014-3-24,27,15,3,4,-2,-6,79,54,29,30.20,30.14,30.07,10,10,7,22,5,26,0.00,0,,314
2014-3-25,34,18,2,12,5,-1,91,60,28,30.14,30.06,29.98,10,10,8,16,2,21,0.00,2,,254
2014-3-26,30,24,17,13,5,-5,73,51,29,30.10,29.89,29.79,10,10,6,26,9,47,0.00,2,,325
2014-3-27,38,25,12,20,3,-4,63,44,24,30.34,30.24,30.12,10,10,10,15,5,20,0.00,3,,261
2014-3-28,39,35,31,38,32,14,100,70,40,30.16,29.99,29.91,10,4,0,12,5,14,0.18,8,Fog-Rain,169
2014-3-29,51,43,34,37,34,30,100,73,46,30.28,30.14,30.02,10,5,0,12,4,17,0.38,7,Fog-Rain,52
2014-3-30,41,38,34,38,36,31,100,91,82,29.99,29.78,29.71,10,5,1,15,5,26,0.74,8,Rain,19
2014-3-31,40,36,32,29,25,23,82,71,59,30.11,29.96,29.78,10,10,10,23,11,36,T,7,Rain,351